sensor_id;sensor_type;location;lat;lon;timestamp;pressure;altitude;pressure_sealevel;temperature;humidity
35443;BME280;21561;55.654;37.592;2022-09-21T00:03:31;99286.97;;;7.43;100.00
35443;BME280;21561;55.654;37.592;2022-09-21T00:06:04;99279.22;;;7.43;100.00
35443;BME280;21561;55.654;37.592;2022-09-21T00:08:31;99282.66;;;7.45;100.00
35443;BME280;21561;55.654;37.592;2022-09-21T00:10:59;99279.25;;;7.47;100.00
35443;BME280;21561;55.654;37.592;2022-09-21T00:13:26;99279.25;;;7.47;100.00
35443;BME280;21561;55.654;37.592;2022-09-21T00:15:56;99283.53;;;7.48;100.00
35443;BME280;21561;55.654;37.592;2022-09-21T00:18:23;99279.25;;;7.47;100.00
35443;BME280;21561;55.654;37.592;2022-09-21T00:20:50;99274.06;;;7.43;100.00
35443;BME280;21561;55.654;37.592;2022-09-21T00:23:18;99277.50;;;7.42;100.00
35443;BME280;21561;55.654;37.592;2022-09-21T00:25:44;99280.97;;;7.41;100.00
35443;BME280;21561;55.654;37.592;2022-09-21T00:28:11;99277.50;;;7.42;100.00
35443;BME280;21561;55.654;37.592;2022-09-21T00:30:38;99279.22;;;7.40;100.00
35443;BME280;21561;55.654;37.592;2022-09-21T00:33:05;99282.69;;;7.39;100.00
35443;BME280;21561;55.654;37.592;2022-09-21T00:35:32;99286.13;;;7.40;100.00
35443;BME280;21561;55.654;37.592;2022-09-21T00:37:59;99288.69;;;7.40;100.00
35443;BME280;21561;55.654;37.592;2022-09-21T00:40:26;99286.13;;;7.38;100.00
35443;BME280;21561;55.654;37.592;2022-09-21T00:42:52;99288.69;;;7.35;100.00
35443;BME280;21561;55.654;37.592;2022-09-21T00:45:19;99285.25;;;7.33;100.00
35443;BME280;21561;55.654;37.592;2022-09-21T00:47:49;99287.84;;;7.33;100.00
35443;BME280;21561;55.654;37.592;2022-09-21T00:50:18;99290.41;;;7.35;100.00
35443;BME280;21561;55.654;37.592;2022-09-21T00:52:51;99287.84;;;7.33;100.00
35443;BME280;21561;55.654;37.592;2022-09-21T00:55:20;99289.56;;;7.31;100.00
35443;BME280;21561;55.654;37.592;2022-09-21T00:57:49;99286.13;;;7.32;100.00
35443;BME280;21561;55.654;37.592;2022-09-21T01:00:18;99286.13;;;7.32;100.00
35443;BME280;21561;55.654;37.592;2022-09-21T01:02:44;99282.66;;;7.32;100.00
35443;BME280;21561;55.654;37.592;2022-09-21T01:05:11;99279.22;;;7.31;100.00
35443;BME280;21561;55.654;37.592;2022-09-21T01:07:41;99276.66;;;7.30;100.00
35443;BME280;21561;55.654;37.592;2022-09-21T01:10:11;99279.22;;;7.30;100.00
35443;BME280;21561;55.654;37.592;2022-09-21T01:30:46;99279.22;;;7.13;100.00
35443;BME280;21561;55.654;37.592;2022-09-21T01:33:22;99278.34;;;7.12;100.00
35443;BME280;21561;55.654;37.592;2022-09-21T01:35:53;99290.41;;;7.13;100.00
35443;BME280;21561;55.654;37.592;2022-09-21T01:38:30;99274.06;;;7.14;100.00
35443;BME280;21561;55.654;37.592;2022-09-21T01:41:00;99284.38;;;7.16;100.00
35443;BME280;21561;55.654;37.592;2022-09-21T01:43:30;99284.38;;;7.16;100.00
35443;BME280;21561;55.654;37.592;2022-09-21T01:45:58;99280.94;;;7.14;100.00
35443;BME280;21561;55.654;37.592;2022-09-21T01:48:33;99280.94;;;7.11;100.00
35443;BME280;21561;55.654;37.592;2022-09-21T01:51:02;99283.50;;;7.06;100.00
35443;BME280;21561;55.654;37.592;2022-09-21T01:56:03;99285.22;;;7.04;100.00
35443;BME280;21561;55.654;37.592;2022-09-21T01:58:34;99284.38;;;7.03;100.00
35443;BME280;21561;55.654;37.592;2022-09-21T02:01:02;99289.53;;;7.03;100.00
35443;BME280;21561;55.654;37.592;2022-09-21T02:03:37;99284.38;;;7.03;100.00
35443;BME280;21561;55.654;37.592;2022-09-21T02:06:06;99292.13;;;7.03;100.00
35443;BME280;21561;55.654;37.592;2022-09-21T02:08:33;99288.66;;;7.03;100.00
35443;BME280;21561;55.654;37.592;2022-09-21T02:11:02;99292.97;;;7.02;100.00
35443;BME280;21561;55.654;37.592;2022-09-21T02:13:33;99286.06;;;7.01;100.00
35443;BME280;21561;55.654;37.592;2022-09-21T02:21:55;99292.13;;;7.02;100.00
35443;BME280;21561;55.654;37.592;2022-09-21T02:29:48;99303.31;;;7.05;100.00
35443;BME280;21561;55.654;37.592;2022-09-21T02:35:43;99301.56;;;7.04;100.00
35443;BME280;21561;55.654;37.592;2022-09-21T02:37:50;99306.72;;;7.06;100.00
35443;BME280;21561;55.654;37.592;2022-09-21T02:40:46;99306.75;;;7.07;100.00
35443;BME280;21561;55.654;37.592;2022-09-21T02:43:17;99300.69;;;7.08;100.00
35443;BME280;21561;55.654;37.592;2022-09-21T02:45:49;99305.03;;;7.10;100.00
35443;BME280;21561;55.654;37.592;2022-09-21T02:48:17;99301.59;;;7.11;100.00
35443;BME280;21561;55.654;37.592;2022-09-21T02:50:49;99303.31;;;7.15;100.00
35443;BME280;21561;55.654;37.592;2022-09-21T02:53:18;99303.31;;;7.18;100.00
35443;BME280;21561;55.654;37.592;2022-09-21T02:55:47;99305.03;;;7.19;100.00
35443;BME280;21561;55.654;37.592;2022-09-21T02:58:21;99293.88;;;7.21;100.00
35443;BME280;21561;55.654;37.592;2022-09-21T03:00:49;99293.00;;;7.24;100.00
35443;BME280;21561;55.654;37.592;2022-09-21T03:03:17;99296.44;;;7.29;100.00
35443;BME280;21561;55.654;37.592;2022-09-21T03:05:44;99291.28;;;7.32;100.00
35443;BME280;21561;55.654;37.592;2022-09-21T03:08:12;99291.25;;;7.35;100.00
35443;BME280;21561;55.654;37.592;2022-09-21T03:10:38;99291.28;;;7.38;100.00
35443;BME280;21561;55.654;37.592;2022-09-21T03:13:06;99293.00;;;7.42;100.00
35443;BME280;21561;55.654;37.592;2022-09-21T03:15:37;99293.00;;;7.49;100.00
35443;BME280;21561;55.654;37.592;2022-09-21T03:18:05;99299.88;;;7.53;100.00
35443;BME280;21561;55.654;37.592;2022-09-21T03:20:32;99295.56;;;7.55;100.00
35443;BME280;21561;55.654;37.592;2022-09-21T03:22:59;99293.84;;;7.57;100.00
35443;BME280;21561;55.654;37.592;2022-09-21T03:25:26;99286.94;;;7.59;100.00
35443;BME280;21561;55.654;37.592;2022-09-21T03:27:53;99289.53;;;7.62;100.00
35443;BME280;21561;55.654;37.592;2022-09-21T03:30:20;99290.41;;;7.65;100.00
35443;BME280;21561;55.654;37.592;2022-09-21T03:32:50;99292.09;;;7.71;100.00
35443;BME280;21561;55.654;37.592;2022-09-21T03:35:20;99284.38;;;7.77;100.00
35443;BME280;21561;55.654;37.592;2022-09-21T03:37:47;99285.19;;;7.90;100.00
35443;BME280;21561;55.654;37.592;2022-09-21T03:40:15;99286.91;;;8.00;100.00
35443;BME280;21561;55.654;37.592;2022-09-21T03:42:43;99279.13;;;8.05;100.00
35443;BME280;21561;55.654;37.592;2022-09-21T03:45:10;99277.41;;;8.10;100.00
35443;BME280;21561;55.654;37.592;2022-09-21T03:47:37;99280.81;;;8.15;100.00
35443;BME280;21561;55.654;37.592;2022-09-21T03:50:04;99285.13;;;8.24;100.00
35443;BME280;21561;55.654;37.592;2022-09-21T03:52:35;99275.59;;;8.34;100.00
35443;BME280;21561;55.654;37.592;2022-09-21T03:55:04;99277.31;;;8.44;100.00
35443;BME280;21561;55.654;37.592;2022-09-21T03:57:32;99279.00;;;8.51;100.00
35443;BME280;21561;55.654;37.592;2022-09-21T04:00:00;99284.97;;;8.59;100.00
35443;BME280;21561;55.654;37.592;2022-09-21T04:02:29;99282.38;;;8.66;100.00
35443;BME280;21561;55.654;37.592;2022-09-21T04:04:56;99282.31;;;8.72;100.00
35443;BME280;21561;55.654;37.592;2022-09-21T04:07:23;99284.91;;;8.75;100.00
35443;BME280;21561;55.654;37.592;2022-09-21T04:09:49;99284.00;;;8.79;100.00
35443;BME280;21561;55.654;37.592;2022-09-21T04:12:19;99289.19;;;8.82;100.00
35443;BME280;21561;55.654;37.592;2022-09-21T04:14:47;99296.03;;;8.86;100.00
35443;BME280;21561;55.654;37.592;2022-09-21T04:17:15;99280.50;;;8.89;100.00
35443;BME280;21561;55.654;37.592;2022-09-21T04:19:41;99280.50;;;8.92;100.00
35443;BME280;21561;55.654;37.592;2022-09-21T04:22:10;99275.31;;;8.95;100.00
35443;BME280;21561;55.654;37.592;2022-09-21T04:24:40;99272.69;;;9.00;100.00
35443;BME280;21561;55.654;37.592;2022-09-21T04:27:07;99279.53;;;9.04;100.00
35443;BME280;21561;55.654;37.592;2022-09-21T04:29:34;99286.44;;;9.10;100.00
35443;BME280;21561;55.654;37.592;2022-09-21T04:32:01;99287.22;;;9.15;100.00
35443;BME280;21561;55.654;37.592;2022-09-21T04:34:28;99288.97;;;9.19;100.00
35443;BME280;21561;55.654;37.592;2022-09-21T04:36:56;99287.19;;;9.24;100.00
35443;BME280;21561;55.654;37.592;2022-09-21T04:39:24;99290.59;;;9.29;100.00
35443;BME280;21561;55.654;37.592;2022-09-21T04:41:50;99294.88;;;9.35;100.00
35443;BME280;21561;55.654;37.592;2022-09-21T04:44:17;99300.00;;;9.41;100.00
35443;BME280;21561;55.654;37.592;2022-09-21T04:46:44;99304.25;;;9.48;100.00
35443;BME280;21561;55.654;37.592;2022-09-21T04:49:11;99299.00;;;9.54;100.00
35443;BME280;21561;55.654;37.592;2022-09-21T04:51:38;99296.41;;;9.59;100.00
35443;BME280;21561;55.654;37.592;2022-09-21T04:54:04;99300.66;;;9.66;100.00
35443;BME280;21561;55.654;37.592;2022-09-21T04:56:32;99297.13;;;9.73;100.00
35443;BME280;21561;55.654;37.592;2022-09-21T04:58:58;99302.25;;;9.80;100.00
35443;BME280;21561;55.654;37.592;2022-09-21T05:01:25;99299.59;;;9.87;100.00
35443;BME280;21561;55.654;37.592;2022-09-21T05:03:52;99305.56;;;9.94;100.00
35443;BME280;21561;55.654;37.592;2022-09-21T05:06:19;99296.00;;;10.01;100.00
35443;BME280;21561;55.654;37.592;2022-09-21T05:08:46;99301.97;;;10.10;100.00
35443;BME280;21561;55.654;37.592;2022-09-21T05:11:31;99290.66;;;10.18;100.00
35443;BME280;21561;55.654;37.592;2022-09-21T05:13:58;99294.00;;;10.26;100.00
35443;BME280;21561;55.654;37.592;2022-09-21T05:16:25;99301.69;;;10.35;100.00
35443;BME280;21561;55.654;37.592;2022-09-21T05:18:52;99300.72;;;10.45;100.00
35443;BME280;21561;55.654;37.592;2022-09-21T05:21:20;99298.00;;;10.55;100.00
35443;BME280;21561;55.654;37.592;2022-09-21T05:23:47;99295.28;;;10.64;100.00
35443;BME280;21561;55.654;37.592;2022-09-21T05:26:13;99294.28;;;10.74;100.00
35443;BME280;21561;55.654;37.592;2022-09-21T05:28:40;99299.31;;;10.86;100.00
35443;BME280;21561;55.654;37.592;2022-09-21T05:33:50;99295.56;;;11.09;100.00
35443;BME280;21561;55.654;37.592;2022-09-21T05:38:47;99291.69;;;11.35;100.00
35443;BME280;21561;55.654;37.592;2022-09-21T05:41:13;99294.97;;;11.46;100.00
35443;BME280;21561;55.654;37.592;2022-09-21T05:43:40;99293.94;;;11.55;100.00
35443;BME280;21561;55.654;37.592;2022-09-21T05:48:39;99272.84;;;11.72;100.00
35443;BME280;21561;55.654;37.592;2022-09-21T06:01:32;99287.25;;;11.93;99.89
35443;BME280;21561;55.654;37.592;2022-09-21T06:03:58;99288.06;;;11.96;100.00
35443;BME280;21561;55.654;37.592;2022-09-21T06:06:27;99287.09;;;12.00;99.91
35443;BME280;21561;55.654;37.592;2022-09-21T06:08:54;99288.69;;;12.08;99.86
35443;BME280;21561;55.654;37.592;2022-09-21T06:11:20;99280.75;;;12.17;99.48
35443;BME280;21561;55.654;37.592;2022-09-21T06:13:47;99280.53;;;12.28;99.12
35443;BME280;21561;55.654;37.592;2022-09-21T06:16:13;99282.97;;;12.35;98.99
35443;BME280;21561;55.654;37.592;2022-09-21T06:18:40;99289.72;;;12.46;98.71
35443;BME280;21561;55.654;37.592;2022-09-21T06:21:07;99287.78;;;12.54;98.34
35443;BME280;21561;55.654;37.592;2022-09-21T06:23:34;99283.34;;;12.59;98.14
35443;BME280;21561;55.654;37.592;2022-09-21T06:26:01;99285.91;;;12.62;98.01
35443;BME280;21561;55.654;37.592;2022-09-21T06:28:27;99289.31;;;12.64;97.62
35443;BME280;21561;55.654;37.592;2022-09-21T06:30:55;99284.06;;;12.67;97.55
35443;BME280;21561;55.654;37.592;2022-09-21T06:33:22;99289.13;;;12.73;97.34
35443;BME280;21561;55.654;37.592;2022-09-21T06:35:56;99288.13;;;12.79;97.01
35443;BME280;21561;55.654;37.592;2022-09-21T06:38:23;99289.72;;;12.85;96.77
35443;BME280;21561;55.654;37.592;2022-09-21T06:40:50;99292.19;;;12.92;96.38
35443;BME280;21561;55.654;37.592;2022-09-21T06:43:17;99288.59;;;12.98;96.08
35443;BME280;21561;55.654;37.592;2022-09-21T06:45:51;99292.84;;;13.01;95.94
35443;BME280;21561;55.654;37.592;2022-09-21T06:48:18;99293.63;;;13.04;95.86
35443;BME280;21561;55.654;37.592;2022-09-21T06:50:44;99291.91;;;13.05;95.86
35443;BME280;21561;55.654;37.592;2022-09-21T06:53:11;99295.44;;;13.02;95.04
35443;BME280;21561;55.654;37.592;2022-09-21T06:55:38;99294.66;;;12.97;95.01
35443;BME280;21561;55.654;37.592;2022-09-21T06:58:05;99298.16;;;12.97;95.17
35443;BME280;21561;55.654;37.592;2022-09-21T07:00:33;99303.41;;;12.96;94.83
35443;BME280;21561;55.654;37.592;2022-09-21T07:03:00;99309.47;;;12.95;94.76
35443;BME280;21561;55.654;37.592;2022-09-21T07:05:26;99309.47;;;12.95;94.83
35443;BME280;21561;55.654;37.592;2022-09-21T07:07:56;99311.22;;;12.96;94.39
35443;BME280;21561;55.654;37.592;2022-09-21T07:10:24;99304.16;;;13.01;94.20
35443;BME280;21561;55.654;37.592;2022-09-21T07:12:51;99309.16;;;13.10;93.65
35443;BME280;21561;55.654;37.592;2022-09-21T07:15:17;99311.59;;;13.16;93.80
35443;BME280;21561;55.654;37.592;2022-09-21T07:17:47;99308.00;;;13.22;93.17
35443;BME280;21561;55.654;37.592;2022-09-21T07:20:18;99310.44;;;13.30;93.00
35443;BME280;21561;55.654;37.592;2022-09-21T07:22:44;99300.91;;;13.29;88.28
35443;BME280;21561;55.654;37.592;2022-09-21T07:25:11;99300.72;;;13.36;90.47
35443;BME280;21561;55.654;37.592;2022-09-21T07:27:38;99303.38;;;13.35;91.25
35443;BME280;21561;55.654;37.592;2022-09-21T07:30:05;99306.84;;;13.35;91.85
35443;BME280;21561;55.654;37.592;2022-09-21T07:32:32;99302.44;;;13.39;91.52
35443;BME280;21561;55.654;37.592;2022-09-21T07:34:59;99292.75;;;13.44;91.76
35443;BME280;21561;55.654;37.592;2022-09-21T07:37:26;99296.06;;;13.49;91.04
35443;BME280;21561;55.654;37.592;2022-09-21T07:39:53;99295.94;;;13.55;91.03
35443;BME280;21561;55.654;37.592;2022-09-21T07:42:20;99293.97;;;13.64;91.08
35443;BME280;21561;55.654;37.592;2022-09-21T07:44:48;99307.63;;;13.75;90.67
35443;BME280;21561;55.654;37.592;2022-09-21T07:47:16;99302.25;;;13.81;90.31
35443;BME280;21561;55.654;37.592;2022-09-21T07:49:43;99300.28;;;13.89;90.04
35443;BME280;21561;55.654;37.592;2022-09-21T07:52:09;99295.84;;;13.93;89.47
35443;BME280;21561;55.654;37.592;2022-09-21T07:54:36;99293.09;;;13.98;89.11
35443;BME280;21561;55.654;37.592;2022-09-21T07:57:03;99299.97;;;14.02;89.14
35443;BME280;21561;55.654;37.592;2022-09-21T07:59:48;99302.41;;;14.08;89.08
35443;BME280;21561;55.654;37.592;2022-09-21T08:02:15;99298.88;;;14.10;88.77
35443;BME280;21561;55.654;37.592;2022-09-21T08:04:41;99304.88;;;14.14;88.91
35443;BME280;21561;55.654;37.592;2022-09-21T08:07:08;99301.28;;;14.18;88.96
35443;BME280;21561;55.654;37.592;2022-09-21T08:09:35;99299.41;;;14.23;88.79
35443;BME280;21561;55.654;37.592;2022-09-21T08:12:01;99295.78;;;14.27;88.60
35443;BME280;21561;55.654;37.592;2022-09-21T08:14:28;99294.06;;;14.26;88.73
35443;BME280;21561;55.654;37.592;2022-09-21T08:16:54;99286.38;;;14.22;88.64
35443;BME280;21561;55.654;37.592;2022-09-21T08:19:21;99295.97;;;14.21;88.45
35443;BME280;21561;55.654;37.592;2022-09-21T08:21:51;99296.84;;;14.20;88.56
35443;BME280;21561;55.654;37.592;2022-09-21T08:24:22;99296.06;;;14.18;88.98
35443;BME280;21561;55.654;37.592;2022-09-21T08:26:52;99290.91;;;14.15;88.51
35443;BME280;21561;55.654;37.592;2022-09-21T08:29:19;99290.06;;;14.15;88.37
35443;BME280;21561;55.654;37.592;2022-09-21T08:31:45;99295.25;;;14.16;87.32
35443;BME280;21561;55.654;37.592;2022-09-21T08:34:12;99289.28;;;14.11;87.78
35443;BME280;21561;55.654;37.592;2022-09-21T08:36:39;99288.44;;;14.10;87.65
35443;BME280;21561;55.654;37.592;2022-09-21T08:39:06;99289.28;;;14.11;87.52
35443;BME280;21561;55.654;37.592;2022-09-21T08:44:13;99284.53;;;14.25;87.16
35443;BME280;21561;55.654;37.592;2022-09-21T08:46:42;99279.09;;;14.33;86.99
35443;BME280;21561;55.654;37.592;2022-09-21T08:49:15;99279.88;;;14.37;86.53
35443;BME280;21561;55.654;37.592;2022-09-21T08:51:45;99280.59;;;14.42;86.25
35443;BME280;21561;55.654;37.592;2022-09-21T08:54:18;99270.13;;;14.43;86.48
35443;BME280;21561;55.654;37.592;2022-09-21T08:56:46;99262.28;;;14.43;85.68
35443;BME280;21561;55.654;37.592;2022-09-21T08:59:30;99262.25;;;14.45;86.01
35443;BME280;21561;55.654;37.592;2022-09-21T09:22:06;99250.09;;;15.28;83.41
35443;BME280;21561;55.654;37.592;2022-09-21T09:24:45;99241.31;;;15.31;83.37
35443;BME280;21561;55.654;37.592;2022-09-21T09:27:16;99243.91;;;15.33;82.70
35443;BME280;21561;55.654;37.592;2022-09-21T09:29:47;99249.91;;;15.35;82.98
35443;BME280;21561;55.654;37.592;2022-09-21T09:32:18;99247.03;;;15.42;82.14
35443;BME280;21561;55.654;37.592;2022-09-21T09:34:54;99243.22;;;15.53;82.31
35443;BME280;21561;55.654;37.592;2022-09-21T09:37:23;99246.31;;;15.64;72.69
35443;BME280;21561;55.654;37.592;2022-09-21T09:39:54;99236.97;;;15.83;78.12
35443;BME280;21561;55.654;37.592;2022-09-21T09:42:25;99240.69;;;16.01;79.67
35443;BME280;21561;55.654;37.592;2022-09-21T09:50:04;99229.81;;;16.36;79.04
35443;BME280;21561;55.654;37.592;2022-09-21T09:52:34;99229.72;;;16.39;78.32
35443;BME280;21561;55.654;37.592;2022-09-21T09:55:10;99233.47;;;16.32;78.51
35443;BME280;21561;55.654;37.592;2022-09-21T09:57:40;99235.75;;;16.17;78.47
35443;BME280;21561;55.654;37.592;2022-09-21T10:00:07;99244.00;;;16.07;78.27
35443;BME280;21561;55.654;37.592;2022-09-21T10:02:48;99243.34;;;16.00;78.24
35443;BME280;21561;55.654;37.592;2022-09-21T10:05:30;99246.75;;;16.02;78.50
35443;BME280;21561;55.654;37.592;2022-09-21T10:07:57;99239.56;;;16.09;78.47
35443;BME280;21561;55.654;37.592;2022-09-21T10:10:34;99242.19;;;16.09;77.82
35443;BME280;21561;55.654;37.592;2022-09-21T10:13:44;99248.59;;;16.00;77.25
35443;BME280;21561;55.654;37.592;2022-09-21T10:15:53;99243.53;;;15.95;77.40
35443;BME280;21561;55.654;37.592;2022-09-21T10:21:01;99234.47;;;16.04;76.91
35443;BME280;21561;55.654;37.592;2022-09-21T10:23:29;99238.75;;;16.07;76.71
35443;BME280;21561;55.654;37.592;2022-09-21T10:25:58;99228.94;;;16.13;76.05
35443;BME280;21561;55.654;37.592;2022-09-21T10:28:25;99230.28;;;16.23;75.93
35443;BME280;21561;55.654;37.592;2022-09-21T10:31:38;99233.13;;;16.41;74.93
35443;BME280;21561;55.654;37.592;2022-09-21T10:34:13;99235.41;;;16.50;73.58
35443;BME280;21561;55.654;37.592;2022-09-21T10:36:33;99227.06;;;16.40;74.42
35443;BME280;21561;55.654;37.592;2022-09-21T10:39:17;99229.94;;;16.33;74.84
35443;BME280;21561;55.654;37.592;2022-09-21T10:44:17;99221.88;;;16.15;74.96
35443;BME280;21561;55.654;37.592;2022-09-21T10:46:45;99223.91;;;16.07;74.68
35443;BME280;21561;55.654;37.592;2022-09-21T10:49:18;99229.38;;;16.01;74.60
35443;BME280;21561;55.654;37.592;2022-09-21T10:51:47;99225.00;;;16.01;74.09
35443;BME280;21561;55.654;37.592;2022-09-21T10:54:16;99227.66;;;16.00;73.72
35443;BME280;21561;55.654;37.592;2022-09-21T10:57:19;99232.88;;;16.00;74.41
35443;BME280;21561;55.654;37.592;2022-09-21T10:59:37;99236.63;;;15.93;73.58
35443;BME280;21561;55.654;37.592;2022-09-21T11:04:50;99230.25;;;15.76;73.48
35443;BME280;21561;55.654;37.592;2022-09-21T11:07:21;99225.31;;;15.67;73.74
35443;BME280;21561;55.654;37.592;2022-09-21T11:12:29;99224.78;;;15.56;73.15
35443;BME280;21561;55.654;37.592;2022-09-21T11:17:35;99219.09;;;15.44;73.83
35443;BME280;21561;55.654;37.592;2022-09-21T11:20:08;99220.81;;;15.45;74.00
35443;BME280;21561;55.654;37.592;2022-09-21T11:28:09;99221.88;;;15.65;73.61
35443;BME280;21561;55.654;37.592;2022-09-21T11:30:45;99222.63;;;15.69;73.76
35443;BME280;21561;55.654;37.592;2022-09-21T11:38:44;99218.66;;;15.57;74.08
35443;BME280;21561;55.654;37.592;2022-09-21T11:52:11;99200.41;;;15.30;70.89
35443;BME280;21561;55.654;37.592;2022-09-21T11:57:25;99196.97;;;15.28;73.77
35443;BME280;21561;55.654;37.592;2022-09-21T12:00:01;99195.25;;;15.27;73.67
35443;BME280;21561;55.654;37.592;2022-09-21T12:05:19;99201.56;;;15.21;73.65
35443;BME280;21561;55.654;37.592;2022-09-21T12:07:53;99195.56;;;15.18;73.97
35443;BME280;21561;55.654;37.592;2022-09-21T12:23:22;99192.72;;;14.99;73.92
35443;BME280;21561;55.654;37.592;2022-09-21T12:25:53;99190.97;;;14.99;74.02
35443;BME280;21561;55.654;37.592;2022-09-21T12:28:29;99190.22;;;14.96;73.80
35443;BME280;21561;55.654;37.592;2022-09-21T12:30:58;99189.44;;;14.92;73.84
35443;BME280;21561;55.654;37.592;2022-09-21T12:36:13;99191.44;;;14.84;74.01
35443;BME280;21561;55.654;37.592;2022-09-21T12:38:44;99193.47;;;14.76;74.15
35443;BME280;21561;55.654;37.592;2022-09-21T12:43:46;99185.13;;;14.64;74.51
35443;BME280;21561;55.654;37.592;2022-09-21T12:46:21;99188.69;;;14.60;74.46
35443;BME280;21561;55.654;37.592;2022-09-21T12:48:49;99200.06;;;14.59;74.20
35443;BME280;21561;55.654;37.592;2022-09-21T12:51:35;99201.00;;;14.55;74.01
35443;BME280;21561;55.654;37.592;2022-09-21T12:54:08;99194.09;;;14.54;74.27
35443;BME280;21561;55.654;37.592;2022-09-21T12:56:43;99194.19;;;14.51;74.41
35443;BME280;21561;55.654;37.592;2022-09-21T12:59:30;99197.78;;;14.47;74.10
35443;BME280;21561;55.654;37.592;2022-09-21T13:02:15;99197.97;;;14.41;73.22
35443;BME280;21561;55.654;37.592;2022-09-21T13:10:06;99185.81;;;14.40;73.75
35443;BME280;21561;55.654;37.592;2022-09-21T13:12:37;99181.53;;;14.37;73.74
35443;BME280;21561;55.654;37.592;2022-09-21T13:20:25;99188.44;;;14.40;73.94
35443;BME280;21561;55.654;37.592;2022-09-21T13:22:59;99187.50;;;14.41;74.06
35443;BME280;21561;55.654;37.592;2022-09-21T13:25:28;99184.03;;;14.42;74.36
35443;BME280;21561;55.654;37.592;2022-09-21T13:27:56;99180.53;;;14.43;74.53
35443;BME280;21561;55.654;37.592;2022-09-21T13:32:57;99185.81;;;14.40;74.72
35443;BME280;21561;55.654;37.592;2022-09-21T13:41:00;99184.41;;;14.28;74.88
35443;BME280;21561;55.654;37.592;2022-09-21T13:48:58;99179.53;;;14.17;75.13
35443;BME280;21561;55.654;37.592;2022-09-21T13:51:28;99185.69;;;14.15;74.87
35443;BME280;21561;55.654;37.592;2022-09-21T13:53:58;99185.81;;;14.10;75.52
35443;BME280;21561;55.654;37.592;2022-09-21T13:56:27;99184.25;;;14.04;75.37
35443;BME280;21561;55.654;37.592;2022-09-21T13:58:55;99177.34;;;14.03;75.30
35443;BME280;21561;55.654;37.592;2022-09-21T14:01:30;99175.69;;;13.99;75.18
35443;BME280;21561;55.654;37.592;2022-09-21T14:06:46;99169.69;;;13.96;75.62
35443;BME280;21561;55.654;37.592;2022-09-21T14:09:21;99170.63;;;13.94;75.46
35443;BME280;21561;55.654;37.592;2022-09-21T14:11:53;99167.13;;;13.94;75.47
35443;BME280;21561;55.654;37.592;2022-09-21T14:18:06;99168.97;;;13.90;75.92
35443;BME280;21561;55.654;37.592;2022-09-21T14:20:29;99169.88;;;13.89;76.13
35443;BME280;21561;55.654;37.592;2022-09-21T14:25:50;99176.06;;;13.85;76.10
35443;BME280;21561;55.654;37.592;2022-09-21T14:28:19;99170.03;;;13.83;76.52
35443;BME280;21561;55.654;37.592;2022-09-21T14:30:48;99171.84;;;13.81;76.22
35443;BME280;21561;55.654;37.592;2022-09-21T14:33:20;99179.72;;;13.80;76.66
35443;BME280;21561;55.654;37.592;2022-09-21T14:35:47;99179.75;;;13.78;76.63
35443;BME280;21561;55.654;37.592;2022-09-21T14:40:47;99176.34;;;13.76;76.70
35443;BME280;21561;55.654;37.592;2022-09-21T14:43:16;99170.31;;;13.74;76.68
35443;BME280;21561;55.654;37.592;2022-09-21T14:51:00;99180.16;;;13.64;76.95
35443;BME280;21561;55.654;37.592;2022-09-21T15:00:56;99188.44;;;13.79;76.68
35443;BME280;21561;55.654;37.592;2022-09-21T15:12:20;99184.16;;;13.76;77.17
35443;BME280;21561;55.654;37.592;2022-09-21T15:14:55;99188.53;;;13.75;77.00
35443;BME280;21561;55.654;37.592;2022-09-21T15:17:26;99182.53;;;13.72;77.08
35443;BME280;21561;55.654;37.592;2022-09-21T15:20:00;99190.31;;;13.73;77.00
35443;BME280;21561;55.654;37.592;2022-09-21T15:22:43;99193.00;;;13.70;77.18
35443;BME280;21561;55.654;37.592;2022-09-21T15:25:11;99192.22;;;13.67;77.44
35443;BME280;21561;55.654;37.592;2022-09-21T15:27:40;99190.63;;;13.63;77.43
35443;BME280;21561;55.654;37.592;2022-09-21T15:30:19;99193.28;;;13.60;77.67
35443;BME280;21561;55.654;37.592;2022-09-21T15:32:46;99196.88;;;13.55;77.57
35443;BME280;21561;55.654;37.592;2022-09-21T15:37:40;99196.16;;;13.50;77.77
35443;BME280;21561;55.654;37.592;2022-09-21T15:40:20;99203.97;;;13.50;78.33
35443;BME280;21561;55.654;37.592;2022-09-21T15:43:00;99208.38;;;13.48;78.32
35443;BME280;21561;55.654;37.592;2022-09-21T15:45:45;99213.66;;;13.45;78.23
35443;BME280;21561;55.654;37.592;2022-09-21T15:48:12;99211.34;;;13.33;78.21
35443;BME280;21561;55.654;37.592;2022-09-21T15:50:39;99221.34;;;13.15;78.93
35443;BME280;21561;55.654;37.592;2022-09-21T15:53:13;99221.78;;;12.95;79.28
35443;BME280;21561;55.654;37.592;2022-09-21T15:55:42;99224.72;;;12.82;79.38
35443;BME280;21561;55.654;37.592;2022-09-21T15:58:25;99231.06;;;12.70;79.88
35443;BME280;21561;55.654;37.592;2022-09-21T16:00:53;99228.63;;;12.62;79.48
35443;BME280;21561;55.654;37.592;2022-09-21T16:03:21;99231.34;;;12.56;79.65
35443;BME280;21561;55.654;37.592;2022-09-21T16:05:49;99236.66;;;12.53;79.78
35443;BME280;21561;55.654;37.592;2022-09-21T16:08:27;99238.44;;;12.51;79.76
35443;BME280;21561;55.654;37.592;2022-09-21T16:13:43;99234.97;;;12.49;79.87
35443;BME280;21561;55.654;37.592;2022-09-21T16:16:28;99244.50;;;12.50;80.41
35443;BME280;21561;55.654;37.592;2022-09-21T16:18:56;99244.47;;;12.53;80.37
35443;BME280;21561;55.654;37.592;2022-09-21T16:21:26;99249.56;;;12.56;80.65
35443;BME280;21561;55.654;37.592;2022-09-21T16:23:57;99241.72;;;12.59;80.73
35443;BME280;21561;55.654;37.592;2022-09-21T16:26:29;99244.25;;;12.62;80.62
35443;BME280;21561;55.654;37.592;2022-09-21T16:28:58;99246.69;;;12.70;80.41